Pagrindinis puslapis
METAR-TAF:

METAR-TAF

Oro uostai :

Honningsvåg, Norvegija

platuma: 71-01N, ilguma: 025-59E, Aukštis: 1 m

Dabartinis oras

Ataskaita buvo paskelbta 36 minutes, ne 10:50 UTC
Vėjas 8 kt iš Rytų/Pietryčių
Temperatūra 2°C
Drėgmė 80%
Slėgis 1005 hPa
Matomumas 10 km arba daugiau
Su prošvaistėmis ne aukštis 1500 ft

METAR: ENHV 071050Z 11008KT 9999 BKN015 02/M01 Q1005

Laikas: 12:26 (11:26 UTC)

Prognozė

Ataskaita buvo paskelbta 1 valandą ir 14 minutes, ne 10:12 UTC
Prognozė galioja nuo 07 metu 10 UTC su 07 metu 18 UTC
Vėjas 8 kt iš Rytų/Pietryčių
Matomumas: 8000 m
Mažai debesys ne aukštis 500 ft
Su prošvaistėmis ne aukštis 1800 ft
lietus
Laikinai
nuo 07 metu 10 UTC su 07 metu 15 UTC
Vėjas 20 kt iš Šiaurės Rytų su gūsio iki 30 kt
Laikinai
nuo 07 metu 10 UTC su 07 metu 18 UTC
Matomumas: 2000 m
Su prošvaistėmis ne aukštis 400 ft
Išsisklaidę debesys ne aukštis 1500 ft, Liūtiniai kamuoliniai debesys.
sniegas, lietus

TAF: ENHV 071012Z 0710/0718 11008KT 8000 -SHRA FEW005 BKN018 TEMPO 0710/0715 04020G30KT TEMPO 0710/0718 2000 SHSNRA BKN004 SCT015CB

Orai ataskaitas ir orų prognozės (METAR, TAF).

turimą stotys yra geltonos ir raudonos taškus žemėlapyje.

Perkelti pele per norėdami pamatyti stoties vardą.

Tada spustelėkite, norėdami matyti oro stebėjimo ir prognozės.

Norėdami pakeisti žemėlapį: spustelėkite ant žalios mygtukų su juodo kryžiaus žemyn,; žalią mygtuką su brūkšneliu, jei norite nutolinti; arba žalių rodyklių gretimoms žemėlapius.


METAR-TAF: